sensor_id;sensor_type;location;lat;lon;timestamp;temperature;humidity
21734;DHT22;11029;47.820;10.534;2022-12-07T00:01:23;0.90;87.10
21734;DHT22;11029;47.820;10.534;2022-12-07T00:03:51;0.80;87.20
21734;DHT22;11029;47.820;10.534;2022-12-07T00:06:19;0.80;86.90
21734;DHT22;11029;47.820;10.534;2022-12-07T00:08:46;0.90;87.00
21734;DHT22;11029;47.820;10.534;2022-12-07T00:11:14;0.90;86.90
21734;DHT22;11029;47.820;10.534;2022-12-07T00:13:41;0.90;86.60
21734;DHT22;11029;47.820;10.534;2022-12-07T00:16:12;0.90;86.90
21734;DHT22;11029;47.820;10.534;2022-12-07T00:18:39;0.90;86.50
21734;DHT22;11029;47.820;10.534;2022-12-07T00:21:07;0.80;86.60
21734;DHT22;11029;47.820;10.534;2022-12-07T00:23:35;0.80;86.90
21734;DHT22;11029;47.820;10.534;2022-12-07T00:26:05;0.80;86.70
21734;DHT22;11029;47.820;10.534;2022-12-07T00:28:32;0.90;86.30
21734;DHT22;11029;47.820;10.534;2022-12-07T00:31:00;0.90;86.30
21734;DHT22;11029;47.820;10.534;2022-12-07T00:33:27;0.80;86.10
21734;DHT22;11029;47.820;10.534;2022-12-07T00:35:55;0.80;86.70
21734;DHT22;11029;47.820;10.534;2022-12-07T00:38:22;0.80;86.50
21734;DHT22;11029;47.820;10.534;2022-12-07T00:40:59;0.80;86.30
21734;DHT22;11029;47.820;10.534;2022-12-07T00:43:26;0.80;86.10
21734;DHT22;11029;47.820;10.534;2022-12-07T00:45:53;0.80;86.30
21734;DHT22;11029;47.820;10.534;2022-12-07T00:48:20;0.80;86.10
21734;DHT22;11029;47.820;10.534;2022-12-07T00:50:47;0.80;86.00
21734;DHT22;11029;47.820;10.534;2022-12-07T00:53:14;0.70;86.00
21734;DHT22;11029;47.820;10.534;2022-12-07T00:55:41;0.80;86.30
21734;DHT22;11029;47.820;10.534;2022-12-07T00:58:07;0.80;86.00
21734;DHT22;11029;47.820;10.534;2022-12-07T01:00:35;0.80;86.10
21734;DHT22;11029;47.820;10.534;2022-12-07T01:03:03;0.80;85.90
21734;DHT22;11029;47.820;10.534;2022-12-07T01:05:30;0.90;86.50
21734;DHT22;11029;47.820;10.534;2022-12-07T01:07:56;0.90;86.00
21734;DHT22;11029;47.820;10.534;2022-12-07T01:10:23;1.00;85.70
21734;DHT22;11029;47.820;10.534;2022-12-07T01:12:50;1.00;85.70
21734;DHT22;11029;47.820;10.534;2022-12-07T01:15:16;1.10;85.70
21734;DHT22;11029;47.820;10.534;2022-12-07T01:17:43;1.10;85.60
21734;DHT22;11029;47.820;10.534;2022-12-07T01:20:10;1.10;85.90
21734;DHT22;11029;47.820;10.534;2022-12-07T01:22:40;1.20;85.70
21734;DHT22;11029;47.820;10.534;2022-12-07T01:25:07;1.20;85.40
21734;DHT22;11029;47.820;10.534;2022-12-07T01:27:34;1.20;85.10
21734;DHT22;11029;47.820;10.534;2022-12-07T01:30:01;1.20;84.90
21734;DHT22;11029;47.820;10.534;2022-12-07T01:32:29;1.20;85.00
21734;DHT22;11029;47.820;10.534;2022-12-07T01:34:56;1.20;84.60
21734;DHT22;11029;47.820;10.534;2022-12-07T01:37:23;1.20;84.00
21734;DHT22;11029;47.820;10.534;2022-12-07T01:39:50;1.10;84.20
21734;DHT22;11029;47.820;10.534;2022-12-07T01:42:17;1.10;84.50
21734;DHT22;11029;47.820;10.534;2022-12-07T01:47:34;1.10;85.50
21734;DHT22;11029;47.820;10.534;2022-12-07T01:50:01;1.10;84.70
21734;DHT22;11029;47.820;10.534;2022-12-07T01:52:30;1.10;85.30
21734;DHT22;11029;47.820;10.534;2022-12-07T01:54:59;1.20;84.60
21734;DHT22;11029;47.820;10.534;2022-12-07T01:57:27;1.20;84.30
21734;DHT22;11029;47.820;10.534;2022-12-07T01:59:54;1.10;84.20
21734;DHT22;11029;47.820;10.534;2022-12-07T02:02:57;1.10;84.80
21734;DHT22;11029;47.820;10.534;2022-12-07T02:05:15;1.20;84.70
21734;DHT22;11029;47.820;10.534;2022-12-07T02:07:43;1.10;84.10
21734;DHT22;11029;47.820;10.534;2022-12-07T02:10:32;0.90;84.00
21734;DHT22;11029;47.820;10.534;2022-12-07T02:12:59;0.90;84.80
21734;DHT22;11029;47.820;10.534;2022-12-07T02:23:38;1.00;84.60
21734;DHT22;11029;47.820;10.534;2022-12-07T02:26:18;1.00;84.50
21734;DHT22;11029;47.820;10.534;2022-12-07T02:28:56;1.00;84.30
21734;DHT22;11029;47.820;10.534;2022-12-07T02:31:29;1.00;84.40
21734;DHT22;11029;47.820;10.534;2022-12-07T02:34:01;1.00;84.00
21734;DHT22;11029;47.820;10.534;2022-12-07T02:36:30;0.90;84.30
21734;DHT22;11029;47.820;10.534;2022-12-07T02:39:18;0.90;84.50
21734;DHT22;11029;47.820;10.534;2022-12-07T02:41:51;0.90;84.70
21734;DHT22;11029;47.820;10.534;2022-12-07T02:44:20;1.00;84.40
21734;DHT22;11029;47.820;10.534;2022-12-07T02:46:55;1.00;84.90
21734;DHT22;11029;47.820;10.534;2022-12-07T02:49:23;1.00;84.70
21734;DHT22;11029;47.820;10.534;2022-12-07T02:51:51;1.00;84.30
21734;DHT22;11029;47.820;10.534;2022-12-07T02:54:19;0.90;84.90
21734;DHT22;11029;47.820;10.534;2022-12-07T03:04:41;0.90;85.30
21734;DHT22;11029;47.820;10.534;2022-12-07T03:09:44;0.90;85.40
21734;DHT22;11029;47.820;10.534;2022-12-07T03:12:16;0.90;85.60
21734;DHT22;11029;47.820;10.534;2022-12-07T03:14:46;0.90;86.20
21734;DHT22;11029;47.820;10.534;2022-12-07T03:17:16;1.00;85.80
21734;DHT22;11029;47.820;10.534;2022-12-07T03:19:44;1.00;85.50
21734;DHT22;11029;47.820;10.534;2022-12-07T03:22:12;1.00;85.70
21734;DHT22;11029;47.820;10.534;2022-12-07T03:24:45;1.00;86.10
21734;DHT22;11029;47.820;10.534;2022-12-07T03:27:16;0.90;85.80
21734;DHT22;11029;47.820;10.534;2022-12-07T03:29:44;0.90;86.50
21734;DHT22;11029;47.820;10.534;2022-12-07T03:35:05;0.70;87.80
21734;DHT22;11029;47.820;10.534;2022-12-07T03:37:34;0.60;88.30
21734;DHT22;11029;47.820;10.534;2022-12-07T03:42:35;0.70;88.10
21734;DHT22;11029;47.820;10.534;2022-12-07T03:45:02;0.60;88.50
21734;DHT22;11029;47.820;10.534;2022-12-07T03:47:30;0.70;88.60
21734;DHT22;11029;47.820;10.534;2022-12-07T03:49:59;0.70;88.40
21734;DHT22;11029;47.820;10.534;2022-12-07T03:57:24;0.70;88.90
21734;DHT22;11029;47.820;10.534;2022-12-07T03:59:51;0.70;88.80
21734;DHT22;11029;47.820;10.534;2022-12-07T04:02:19;0.70;89.40
21734;DHT22;11029;47.820;10.534;2022-12-07T04:04:46;0.70;89.00
21734;DHT22;11029;47.820;10.534;2022-12-07T04:07:13;0.70;89.10
21734;DHT22;11029;47.820;10.534;2022-12-07T04:09:40;0.70;88.70
21734;DHT22;11029;47.820;10.534;2022-12-07T04:12:06;0.60;89.20
21734;DHT22;11029;47.820;10.534;2022-12-07T04:14:33;0.50;89.90
21734;DHT22;11029;47.820;10.534;2022-12-07T04:17:00;0.50;90.10
21734;DHT22;11029;47.820;10.534;2022-12-07T04:19:27;0.50;90.20
21734;DHT22;11029;47.820;10.534;2022-12-07T04:21:55;0.50;90.70
21734;DHT22;11029;47.820;10.534;2022-12-07T04:24:22;0.40;90.70
21734;DHT22;11029;47.820;10.534;2022-12-07T04:26:48;0.40;91.10
21734;DHT22;11029;47.820;10.534;2022-12-07T04:29:15;0.40;91.00
21734;DHT22;11029;47.820;10.534;2022-12-07T04:31:42;0.40;91.20
21734;DHT22;11029;47.820;10.534;2022-12-07T04:34:09;0.40;91.50
21734;DHT22;11029;47.820;10.534;2022-12-07T04:36:37;0.40;91.80
21734;DHT22;11029;47.820;10.534;2022-12-07T04:39:04;0.40;91.90
21734;DHT22;11029;47.820;10.534;2022-12-07T04:41:31;0.30;91.90
21734;DHT22;11029;47.820;10.534;2022-12-07T04:43:59;0.30;92.30
21734;DHT22;11029;47.820;10.534;2022-12-07T04:46:26;0.40;92.60
21734;DHT22;11029;47.820;10.534;2022-12-07T04:48:54;0.40;92.20
21734;DHT22;11029;47.820;10.534;2022-12-07T04:51:22;0.40;92.40
21734;DHT22;11029;47.820;10.534;2022-12-07T04:53:49;0.50;92.40
21734;DHT22;11029;47.820;10.534;2022-12-07T04:56:16;0.50;92.10
21734;DHT22;11029;47.820;10.534;2022-12-07T04:58:43;0.60;92.60
21734;DHT22;11029;47.820;10.534;2022-12-07T05:01:10;0.60;92.00
21734;DHT22;11029;47.820;10.534;2022-12-07T05:03:37;0.60;91.70
21734;DHT22;11029;47.820;10.534;2022-12-07T05:06:04;0.60;91.40
21734;DHT22;11029;47.820;10.534;2022-12-07T05:08:38;0.70;91.10
21734;DHT22;11029;47.820;10.534;2022-12-07T05:11:05;0.70;90.80
21734;DHT22;11029;47.820;10.534;2022-12-07T05:13:32;0.70;90.70
21734;DHT22;11029;47.820;10.534;2022-12-07T05:15:59;0.70;90.60
21734;DHT22;11029;47.820;10.534;2022-12-07T05:18:26;0.80;90.10
21734;DHT22;11029;47.820;10.534;2022-12-07T05:20:53;0.70;90.40
21734;DHT22;11029;47.820;10.534;2022-12-07T05:23:19;0.80;90.10
21734;DHT22;11029;47.820;10.534;2022-12-07T05:25:46;0.80;89.70
21734;DHT22;11029;47.820;10.534;2022-12-07T05:28:13;0.80;89.20
21734;DHT22;11029;47.820;10.534;2022-12-07T05:30:39;0.80;89.00
21734;DHT22;11029;47.820;10.534;2022-12-07T05:33:06;0.80;88.70
21734;DHT22;11029;47.820;10.534;2022-12-07T05:35:33;0.80;89.00
21734;DHT22;11029;47.820;10.534;2022-12-07T05:37:59;0.90;88.90
21734;DHT22;11029;47.820;10.534;2022-12-07T05:40:26;0.90;88.40
21734;DHT22;11029;47.820;10.534;2022-12-07T05:42:53;0.90;87.80
21734;DHT22;11029;47.820;10.534;2022-12-07T05:45:19;0.80;87.60
21734;DHT22;11029;47.820;10.534;2022-12-07T05:47:46;0.80;88.00
21734;DHT22;11029;47.820;10.534;2022-12-07T05:50:12;0.80;87.70
21734;DHT22;11029;47.820;10.534;2022-12-07T05:52:39;0.70;87.90
21734;DHT22;11029;47.820;10.534;2022-12-07T05:55:06;0.80;88.00
21734;DHT22;11029;47.820;10.534;2022-12-07T05:57:33;0.70;87.90
21734;DHT22;11029;47.820;10.534;2022-12-07T06:00:00;0.80;88.20
21734;DHT22;11029;47.820;10.534;2022-12-07T06:02:27;0.80;87.90
21734;DHT22;11029;47.820;10.534;2022-12-07T06:04:54;0.80;88.00
21734;DHT22;11029;47.820;10.534;2022-12-07T06:07:20;0.80;88.10
21734;DHT22;11029;47.820;10.534;2022-12-07T06:09:47;0.80;88.20
21734;DHT22;11029;47.820;10.534;2022-12-07T06:12:13;0.80;88.20
21734;DHT22;11029;47.820;10.534;2022-12-07T06:14:59;0.80;88.00
21734;DHT22;11029;47.820;10.534;2022-12-07T06:17:25;0.80;87.90
21734;DHT22;11029;47.820;10.534;2022-12-07T06:19:52;0.90;87.80
21734;DHT22;11029;47.820;10.534;2022-12-07T06:22:20;0.80;87.50
21734;DHT22;11029;47.820;10.534;2022-12-07T06:24:46;0.90;87.60
21734;DHT22;11029;47.820;10.534;2022-12-07T06:27:13;0.90;87.70
21734;DHT22;11029;47.820;10.534;2022-12-07T06:29:40;0.90;87.50
21734;DHT22;11029;47.820;10.534;2022-12-07T06:32:06;0.90;87.20
21734;DHT22;11029;47.820;10.534;2022-12-07T06:34:33;0.90;87.00
21734;DHT22;11029;47.820;10.534;2022-12-07T06:37:00;0.90;86.80
21734;DHT22;11029;47.820;10.534;2022-12-07T06:39:27;0.90;86.90
21734;DHT22;11029;47.820;10.534;2022-12-07T06:41:54;0.80;87.10
21734;DHT22;11029;47.820;10.534;2022-12-07T06:44:21;0.80;87.00
21734;DHT22;11029;47.820;10.534;2022-12-07T06:46:48;0.80;87.30
21734;DHT22;11029;47.820;10.534;2022-12-07T06:49:15;0.90;87.30
21734;DHT22;11029;47.820;10.534;2022-12-07T06:51:42;0.90;87.00
21734;DHT22;11029;47.820;10.534;2022-12-07T06:54:10;0.90;87.00
21734;DHT22;11029;47.820;10.534;2022-12-07T06:56:37;0.90;87.10
21734;DHT22;11029;47.820;10.534;2022-12-07T06:59:04;0.90;86.90
21734;DHT22;11029;47.820;10.534;2022-12-07T07:01:33;0.90;86.70
21734;DHT22;11029;47.820;10.534;2022-12-07T07:04:00;1.00;86.90
21734;DHT22;11029;47.820;10.534;2022-12-07T07:06:27;1.00;86.70
21734;DHT22;11029;47.820;10.534;2022-12-07T07:08:53;1.00;86.10
21734;DHT22;11029;47.820;10.534;2022-12-07T07:11:20;1.00;86.80
21734;DHT22;11029;47.820;10.534;2022-12-07T07:13:47;0.90;86.50
21734;DHT22;11029;47.820;10.534;2022-12-07T07:16:14;0.90;86.40
21734;DHT22;11029;47.820;10.534;2022-12-07T07:18:40;0.90;86.20
21734;DHT22;11029;47.820;10.534;2022-12-07T07:21:07;0.80;86.40
21734;DHT22;11029;47.820;10.534;2022-12-07T07:23:33;0.80;86.70
21734;DHT22;11029;47.820;10.534;2022-12-07T07:26:00;0.80;87.00
21734;DHT22;11029;47.820;10.534;2022-12-07T07:28:27;0.70;86.90
21734;DHT22;11029;47.820;10.534;2022-12-07T07:30:53;0.70;87.30
21734;DHT22;11029;47.820;10.534;2022-12-07T07:33:20;0.60;88.00
21734;DHT22;11029;47.820;10.534;2022-12-07T07:35:47;0.70;88.50
21734;DHT22;11029;47.820;10.534;2022-12-07T07:38:14;0.70;88.50
21734;DHT22;11029;47.820;10.534;2022-12-07T07:40:40;0.80;87.90
21734;DHT22;11029;47.820;10.534;2022-12-07T07:43:07;0.90;87.70
21734;DHT22;11029;47.820;10.534;2022-12-07T07:45:34;0.90;87.50
21734;DHT22;11029;47.820;10.534;2022-12-07T07:48:00;1.00;87.30
21734;DHT22;11029;47.820;10.534;2022-12-07T07:50:27;1.00;86.80
21734;DHT22;11029;47.820;10.534;2022-12-07T07:52:54;1.00;86.20
21734;DHT22;11029;47.820;10.534;2022-12-07T07:55:20;1.00;86.00
21734;DHT22;11029;47.820;10.534;2022-12-07T07:57:47;1.00;86.20
21734;DHT22;11029;47.820;10.534;2022-12-07T08:00:20;1.00;86.00
21734;DHT22;11029;47.820;10.534;2022-12-07T08:02:47;1.00;86.50
21734;DHT22;11029;47.820;10.534;2022-12-07T08:05:14;1.00;86.40
21734;DHT22;11029;47.820;10.534;2022-12-07T08:07:40;1.10;86.60
21734;DHT22;11029;47.820;10.534;2022-12-07T08:10:08;1.10;86.40
21734;DHT22;11029;47.820;10.534;2022-12-07T08:12:37;1.20;86.40
21734;DHT22;11029;47.820;10.534;2022-12-07T08:15:04;1.20;86.30
21734;DHT22;11029;47.820;10.534;2022-12-07T08:17:30;1.20;86.20
21734;DHT22;11029;47.820;10.534;2022-12-07T08:19:57;1.20;85.80
21734;DHT22;11029;47.820;10.534;2022-12-07T08:22:24;1.20;85.40
21734;DHT22;11029;47.820;10.534;2022-12-07T08:24:50;1.10;85.40
21734;DHT22;11029;47.820;10.534;2022-12-07T08:27:17;1.10;86.10
21734;DHT22;11029;47.820;10.534;2022-12-07T08:29:44;1.10;86.60
21734;DHT22;11029;47.820;10.534;2022-12-07T08:32:10;1.20;86.30
21734;DHT22;11029;47.820;10.534;2022-12-07T08:34:37;1.20;86.70
21734;DHT22;11029;47.820;10.534;2022-12-07T08:37:03;1.30;86.30
21734;DHT22;11029;47.820;10.534;2022-12-07T08:39:30;1.30;86.10
21734;DHT22;11029;47.820;10.534;2022-12-07T08:41:58;1.30;85.30
21734;DHT22;11029;47.820;10.534;2022-12-07T08:44:25;1.30;85.20
21734;DHT22;11029;47.820;10.534;2022-12-07T08:46:53;1.30;85.30
21734;DHT22;11029;47.820;10.534;2022-12-07T08:49:23;1.30;85.50
21734;DHT22;11029;47.820;10.534;2022-12-07T08:51:53;1.40;85.30
21734;DHT22;11029;47.820;10.534;2022-12-07T08:54:20;1.40;85.40
21734;DHT22;11029;47.820;10.534;2022-12-07T08:56:48;1.40;85.10
21734;DHT22;11029;47.820;10.534;2022-12-07T08:59:24;1.40;84.90
21734;DHT22;11029;47.820;10.534;2022-12-07T09:01:51;1.40;84.10
21734;DHT22;11029;47.820;10.534;2022-12-07T09:04:18;1.40;84.50
21734;DHT22;11029;47.820;10.534;2022-12-07T09:06:44;1.40;84.70
21734;DHT22;11029;47.820;10.534;2022-12-07T09:09:11;1.40;84.90
21734;DHT22;11029;47.820;10.534;2022-12-07T09:11:39;1.40;85.20
21734;DHT22;11029;47.820;10.534;2022-12-07T09:14:05;1.40;85.00
21734;DHT22;11029;47.820;10.534;2022-12-07T09:16:32;1.50;84.70
21734;DHT22;11029;47.820;10.534;2022-12-07T09:18:59;1.50;84.80
21734;DHT22;11029;47.820;10.534;2022-12-07T09:21:25;1.50;84.80
21734;DHT22;11029;47.820;10.534;2022-12-07T09:23:52;1.50;84.80
21734;DHT22;11029;47.820;10.534;2022-12-07T09:26:19;1.50;84.90
21734;DHT22;11029;47.820;10.534;2022-12-07T09:28:45;1.50;84.70
21734;DHT22;11029;47.820;10.534;2022-12-07T09:31:12;1.50;84.30
21734;DHT22;11029;47.820;10.534;2022-12-07T09:33:57;1.50;83.70
21734;DHT22;11029;47.820;10.534;2022-12-07T09:36:25;1.60;84.20
21734;DHT22;11029;47.820;10.534;2022-12-07T09:38:52;1.60;83.70
21734;DHT22;11029;47.820;10.534;2022-12-07T09:41:19;1.60;83.10
21734;DHT22;11029;47.820;10.534;2022-12-07T09:43:46;1.60;83.50
21734;DHT22;11029;47.820;10.534;2022-12-07T09:46:14;1.50;83.30
21734;DHT22;11029;47.820;10.534;2022-12-07T09:48:42;1.40;83.50
21734;DHT22;11029;47.820;10.534;2022-12-07T09:51:19;1.50;83.80
21734;DHT22;11029;47.820;10.534;2022-12-07T09:53:54;1.40;83.90
21734;DHT22;11029;47.820;10.534;2022-12-07T09:56:21;1.30;84.90
21734;DHT22;11029;47.820;10.534;2022-12-07T09:58:48;1.30;84.90
21734;DHT22;11029;47.820;10.534;2022-12-07T10:01:17;1.30;84.70
21734;DHT22;11029;47.820;10.534;2022-12-07T10:03:54;1.20;84.70
21734;DHT22;11029;47.820;10.534;2022-12-07T10:06:23;1.20;85.30
21734;DHT22;11029;47.820;10.534;2022-12-07T10:08:49;1.30;85.20
21734;DHT22;11029;47.820;10.534;2022-12-07T10:11:16;1.30;84.50
21734;DHT22;11029;47.820;10.534;2022-12-07T10:13:44;1.20;84.20
21734;DHT22;11029;47.820;10.534;2022-12-07T10:18:52;1.40;84.30
21734;DHT22;11029;47.820;10.534;2022-12-07T10:21:20;1.50;84.00
21734;DHT22;11029;47.820;10.534;2022-12-07T10:26:31;1.70;83.10
21734;DHT22;11029;47.820;10.534;2022-12-07T10:28:59;1.80;81.50
21734;DHT22;11029;47.820;10.534;2022-12-07T10:31:26;1.70;82.50
21734;DHT22;11029;47.820;10.534;2022-12-07T10:34:00;1.70;81.00
21734;DHT22;11029;47.820;10.534;2022-12-07T10:36:37;1.60;82.40
21734;DHT22;11029;47.820;10.534;2022-12-07T10:39:17;1.80;82.40
21734;DHT22;11029;47.820;10.534;2022-12-07T10:44:23;1.80;81.50
21734;DHT22;11029;47.820;10.534;2022-12-07T10:46:53;1.80;80.50
21734;DHT22;11029;47.820;10.534;2022-12-07T10:49:43;1.80;80.90
21734;DHT22;11029;47.820;10.534;2022-12-07T10:52:16;1.80;80.20
21734;DHT22;11029;47.820;10.534;2022-12-07T10:57:19;1.80;80.70
21734;DHT22;11029;47.820;10.534;2022-12-07T11:04:29;9.40;97.70
21734;DHT22;11029;47.820;10.534;2022-12-07T11:09:54;13.80;63.20
21734;DHT22;11029;47.820;10.534;2022-12-07T11:24:50;15.10;57.20
21734;DHT22;11029;47.820;10.534;2022-12-07T11:27:26;15.10;57.00
21734;DHT22;11029;47.820;10.534;2022-12-07T11:30:19;15.10;56.80
21734;DHT22;11029;47.820;10.534;2022-12-07T11:38:47;15.20;56.50
21734;DHT22;11029;47.820;10.534;2022-12-07T11:41:19;15.20;56.40
21734;DHT22;11029;47.820;10.534;2022-12-07T11:47:16;15.20;56.30
21734;DHT22;11029;47.820;10.534;2022-12-07T11:49:51;15.20;56.10
21734;DHT22;11029;47.820;10.534;2022-12-07T11:52:32;15.20;56.10
21734;DHT22;11029;47.820;10.534;2022-12-07T11:55:02;15.20;56.10
21734;DHT22;11029;47.820;10.534;2022-12-07T11:57:38;15.20;56.10
21734;DHT22;11029;47.820;10.534;2022-12-07T12:00:13;15.20;56.00
21734;DHT22;11029;47.820;10.534;2022-12-07T12:02:51;15.20;56.00
21734;DHT22;11029;47.820;10.534;2022-12-07T12:05:21;15.20;56.00
21734;DHT22;11029;47.820;10.534;2022-12-07T12:08:13;15.20;55.90
21734;DHT22;11029;47.820;10.534;2022-12-07T12:17:24;15.20;56.00
21734;DHT22;11029;47.820;10.534;2022-12-07T12:20:17;15.30;56.00
21734;DHT22;11029;47.820;10.534;2022-12-07T12:23:01;15.30;56.20
21734;DHT22;11029;47.820;10.534;2022-12-07T12:25:39;15.30;56.10
21734;DHT22;11029;47.820;10.534;2022-12-07T12:28:25;15.30;56.00
21734;DHT22;11029;47.820;10.534;2022-12-07T12:31:15;15.30;56.00
21734;DHT22;11029;47.820;10.534;2022-12-07T12:33:46;15.30;56.00
21734;DHT22;11029;47.820;10.534;2022-12-07T12:36:18;15.30;56.00
21734;DHT22;11029;47.820;10.534;2022-12-07T12:44:03;15.30;56.10
21734;DHT22;11029;47.820;10.534;2022-12-07T12:51:51;15.30;56.10
21734;DHT22;11029;47.820;10.534;2022-12-07T12:59:55;15.30;55.90
21734;DHT22;11029;47.820;10.534;2022-12-07T13:02:30;15.30;56.00
21734;DHT22;11029;47.820;10.534;2022-12-07T13:05:03;15.40;55.90
21734;DHT22;11029;47.820;10.534;2022-12-07T13:10:26;15.30;55.90
21734;DHT22;11029;47.820;10.534;2022-12-07T13:13:00;15.40;55.90
21734;DHT22;11029;47.820;10.534;2022-12-07T16:58:43;23.70;39.50
21734;DHT22;11029;47.820;10.534;2022-12-07T17:01:17;19.30;44.90
21734;DHT22;11029;47.820;10.534;2022-12-07T17:03:44;17.30;49.50
21734;DHT22;11029;47.820;10.534;2022-12-07T17:06:16;16.40;51.90
21734;DHT22;11029;47.820;10.534;2022-12-07T17:08:43;15.90;53.30
21734;DHT22;11029;47.820;10.534;2022-12-07T17:11:18;15.80;53.90
21734;DHT22;11029;47.820;10.534;2022-12-07T17:13:45;15.70;54.40
21734;DHT22;11029;47.820;10.534;2022-12-07T17:16:31;15.70;54.70
21734;DHT22;11029;47.820;10.534;2022-12-07T17:18:58;15.70;54.70
21734;DHT22;11029;47.820;10.534;2022-12-07T17:21:25;15.60;54.80
21734;DHT22;11029;47.820;10.534;2022-12-07T17:23:52;15.60;54.90
21734;DHT22;11029;47.820;10.534;2022-12-07T17:26:23;15.50;55.10
21734;DHT22;11029;47.820;10.534;2022-12-07T17:28:50;15.50;55.20
21734;DHT22;11029;47.820;10.534;2022-12-07T17:31:19;15.50;55.20
21734;DHT22;11029;47.820;10.534;2022-12-07T17:33:46;15.50;55.30
21734;DHT22;11029;47.820;10.534;2022-12-07T17:38:41;15.60;55.30
21734;DHT22;11029;47.820;10.534;2022-12-07T17:41:17;15.60;55.30
21734;DHT22;11029;47.820;10.534;2022-12-07T17:44:10;15.60;55.40
21734;DHT22;11029;47.820;10.534;2022-12-07T17:46:38;15.50;55.60
21734;DHT22;11029;47.820;10.534;2022-12-07T17:49:06;15.60;55.30
21734;DHT22;11029;47.820;10.534;2022-12-07T17:51:33;15.50;55.30
21734;DHT22;11029;47.820;10.534;2022-12-07T17:54:19;15.60;55.50
21734;DHT22;11029;47.820;10.534;2022-12-07T17:56:46;15.50;55.30
21734;DHT22;11029;47.820;10.534;2022-12-07T17:59:13;15.50;55.40
21734;DHT22;11029;47.820;10.534;2022-12-07T18:01:41;15.50;55.30
21734;DHT22;11029;47.820;10.534;2022-12-07T18:04:08;15.50;55.20
21734;DHT22;11029;47.820;10.534;2022-12-07T18:06:35;15.40;55.30
21734;DHT22;11029;47.820;10.534;2022-12-07T18:09:03;15.40;55.20
21734;DHT22;11029;47.820;10.534;2022-12-07T18:11:29;15.40;55.20
21734;DHT22;11029;47.820;10.534;2022-12-07T18:13:56;15.40;55.10
21734;DHT22;11029;47.820;10.534;2022-12-07T18:16:25;15.40;55.10
21734;DHT22;11029;47.820;10.534;2022-12-07T18:18:53;15.40;55.10
21734;DHT22;11029;47.820;10.534;2022-12-07T18:21:25;15.40;55.10
21734;DHT22;11029;47.820;10.534;2022-12-07T18:23:53;15.40;55.00
21734;DHT22;11029;47.820;10.534;2022-12-07T18:26:22;15.50;55.10
21734;DHT22;11029;47.820;10.534;2022-12-07T18:28:49;15.50;55.10
21734;DHT22;11029;47.820;10.534;2022-12-07T18:31:16;15.40;55.00
21734;DHT22;11029;47.820;10.534;2022-12-07T18:33:44;15.40;55.10
21734;DHT22;11029;47.820;10.534;2022-12-07T18:36:12;15.40;55.10
21734;DHT22;11029;47.820;10.534;2022-12-07T18:38:40;15.40;55.10
21734;DHT22;11029;47.820;10.534;2022-12-07T18:41:11;15.40;55.20
21734;DHT22;11029;47.820;10.534;2022-12-07T18:43:39;15.40;55.20
21734;DHT22;11029;47.820;10.534;2022-12-07T18:46:17;15.40;55.20
21734;DHT22;11029;47.820;10.534;2022-12-07T18:48:44;15.40;55.30
21734;DHT22;11029;47.820;10.534;2022-12-07T18:51:13;15.40;55.30
21734;DHT22;11029;47.820;10.534;2022-12-07T18:53:40;15.40;55.30
21734;DHT22;11029;47.820;10.534;2022-12-07T18:58:36;15.40;55.20
21734;DHT22;11029;47.820;10.534;2022-12-07T19:01:03;15.40;55.30
21734;DHT22;11029;47.820;10.534;2022-12-07T19:03:30;15.40;55.30
21734;DHT22;11029;47.820;10.534;2022-12-07T19:06:05;15.40;55.30
21734;DHT22;11029;47.820;10.534;2022-12-07T19:08:32;15.40;55.30
21734;DHT22;11029;47.820;10.534;2022-12-07T19:11:00;15.40;55.20
21734;DHT22;11029;47.820;10.534;2022-12-07T19:13:50;15.40;55.30
21734;DHT22;11029;47.820;10.534;2022-12-07T19:16:17;15.40;55.20
21734;DHT22;11029;47.820;10.534;2022-12-07T19:18:44;15.30;55.20
21734;DHT22;11029;47.820;10.534;2022-12-07T19:21:17;15.40;55.30
21734;DHT22;11029;47.820;10.534;2022-12-07T19:23:44;15.40;55.30
21734;DHT22;11029;47.820;10.534;2022-12-07T19:26:10;15.40;55.40
21734;DHT22;11029;47.820;10.534;2022-12-07T19:28:37;15.40;55.40
21734;DHT22;11029;47.820;10.534;2022-12-07T19:31:08;15.40;55.40
21734;DHT22;11029;47.820;10.534;2022-12-07T19:33:38;15.40;55.40
21734;DHT22;11029;47.820;10.534;2022-12-07T19:36:05;15.30;55.30
21734;DHT22;11029;47.820;10.534;2022-12-07T19:38:33;15.30;55.40
21734;DHT22;11029;47.820;10.534;2022-12-07T19:41:07;15.40;55.30
21734;DHT22;11029;47.820;10.534;2022-12-07T19:43:34;15.30;55.40
21734;DHT22;11029;47.820;10.534;2022-12-07T19:46:05;15.30;55.30
21734;DHT22;11029;47.820;10.534;2022-12-07T19:48:32;15.30;55.40
21734;DHT22;11029;47.820;10.534;2022-12-07T19:51:03;15.30;55.40
21734;DHT22;11029;47.820;10.534;2022-12-07T19:53:33;15.30;55.40
21734;DHT22;11029;47.820;10.534;2022-12-07T19:55:59;15.30;55.40
21734;DHT22;11029;47.820;10.534;2022-12-07T19:58:26;15.30;55.30
21734;DHT22;11029;47.820;10.534;2022-12-07T20:00:53;15.30;55.40
21734;DHT22;11029;47.820;10.534;2022-12-07T20:03:20;15.30;55.30
21734;DHT22;11029;47.820;10.534;2022-12-07T20:05:47;15.30;55.40
21734;DHT22;11029;47.820;10.534;2022-12-07T20:08:13;15.30;55.30
21734;DHT22;11029;47.820;10.534;2022-12-07T20:10:40;15.30;55.30
21734;DHT22;11029;47.820;10.534;2022-12-07T20:13:08;15.30;55.30
21734;DHT22;11029;47.820;10.534;2022-12-07T20:15:54;15.30;55.30
21734;DHT22;11029;47.820;10.534;2022-12-07T20:18:41;15.30;55.30
21734;DHT22;11029;47.820;10.534;2022-12-07T20:21:07;15.30;55.30
21734;DHT22;11029;47.820;10.534;2022-12-07T20:23:34;15.30;55.30
21734;DHT22;11029;47.820;10.534;2022-12-07T20:26:07;15.30;55.30
21734;DHT22;11029;47.820;10.534;2022-12-07T20:28:34;15.30;55.30
21734;DHT22;11029;47.820;10.534;2022-12-07T20:31:01;15.30;55.30
21734;DHT22;11029;47.820;10.534;2022-12-07T20:33:28;15.30;55.30
21734;DHT22;11029;47.820;10.534;2022-12-07T20:36:00;15.30;55.30
21734;DHT22;11029;47.820;10.534;2022-12-07T20:38:28;15.30;55.30
21734;DHT22;11029;47.820;10.534;2022-12-07T20:41:00;15.30;55.30
21734;DHT22;11029;47.820;10.534;2022-12-07T20:43:27;15.30;55.30
21734;DHT22;11029;47.820;10.534;2022-12-07T20:45:55;15.30;55.30
21734;DHT22;11029;47.820;10.534;2022-12-07T20:48:22;15.30;55.40
21734;DHT22;11029;47.820;10.534;2022-12-07T20:50:49;15.30;55.40
21734;DHT22;11029;47.820;10.534;2022-12-07T20:53:16;15.30;55.40
21734;DHT22;11029;47.820;10.534;2022-12-07T20:55:44;15.30;55.40
21734;DHT22;11029;47.820;10.534;2022-12-07T20:58:10;15.30;55.40
21734;DHT22;11029;47.820;10.534;2022-12-07T21:00:37;15.30;55.40
21734;DHT22;11029;47.820;10.534;2022-12-07T21:03:04;15.30;55.40